To NAV CANADA Home Page Login to a new session Search on AWWS site Feedback and Comments Disclaimer Vers la page française équivalente Tips FAQ What's new on the site To the Forecasts and Observations / NOTAM section To "File a Flight Plan" website Publications and other links Update of the User's profile FIC Telephone Numbers My Weather Data Folder Route Weather Data Regional Weather Data Local Weather Data To the Forecasts and Observations / NOTAM section
Request Generated 10/09/2015 at 15:56:49 UTC . Weather information available at that time is displayed.


HOPE/BC    (show WxCam)

METAR CYHE 091500Z AUTO 12009KT 9SM OVC150 12/11 A2987 RMK SLP116=
METAR CYHE 091400Z AUTO 08007KT 9SM BKN180 12/11 A2990 RMK SLP125=
METAR CYHE 091300Z AUTO 09007KT 9SM CLR 12/11 A2992 RMK SLP133=

CYHE - No TAF is issued for this station

Your time UTC time
Weather data provided by Environment Canada and NAV CANADA